Time;durP1;ratioP1;P1;durP2;ratioP2;P2;SDS_P1;SDS_P2;PMS_P1;PMS_P2;Temp;Humidity;BMP_temperature;BMP_pressure;BME280_temperature;BME280_humidity;BME280_pressure;Samples;Min_cycle;Max_cycle;Signal;HPM_P1;HPM_P2
2022/10/19 06:00:09;;;;;;;;;;;;;;;5.83;78.81;101959.19;5112332;22;3701;-78
2022/10/19 06:03:01;;;;;;;;;;;;;;;5.81;78.94;101959.34;5102931;28;1887;-77
2022/10/19 06:05:53;;;;;;;;;;;;;;;5.80;78.84;101972.88;5083664;28;3112;-77
2022/10/19 06:08:20;;;;;;;;;;;;;;;5.77;78.92;101960.66;5047871;28;1978;-77
2022/10/19 06:10:46;;;;;;;;;;;;;;;5.78;78.86;101969.50;5048373;28;1793;-79
2022/10/19 06:13:12;;;;;;;;;;;;;;;5.76;79.05;101977.66;5042278;28;1894;-77
2022/10/19 06:15:39;;;;;;;;;;;;;;;5.75;78.90;101978.66;5029109;28;1836;-76
2022/10/19 06:18:05;;;;;;;;;;;;;;;5.72;78.84;101970.94;5045380;28;1751;-76
2022/10/19 06:20:31;;;;;;;;;;;;;;;5.70;78.91;101979.13;5047827;28;1750;-77
2022/10/19 06:22:57;;;;;;;;;;;;;;;5.71;78.83;101974.63;5033813;28;1910;-77
2022/10/19 06:25:24;;;;;;;;;;;;;;;5.69;78.94;101974.78;5054965;28;1781;-77
2022/10/19 06:27:50;;;;;;;;;;;;;;;5.67;79.11;101968.72;5036976;28;1771;-78
2022/10/19 06:30:16;;;;;;;;;;;;;;;5.67;78.93;101967.91;5048145;28;1821;-78
2022/10/19 06:32:43;;;;;;;;;;;;;;;5.68;79.10;101972.28;5031032;28;1766;-77
2022/10/19 06:35:09;;;;;;;;;;;;;;;5.73;78.60;101977.97;5044397;28;1843;-79
2022/10/19 06:37:35;;;;;;;;;;;;;;;5.69;78.58;101971.25;5028784;28;1825;-77
2022/10/19 06:40:01;;;;;;;;;;;;;;;5.65;78.89;101972.56;5031663;28;1704;-76
2022/10/19 06:42:28;;;;;;;;;;;;;;;5.66;78.83;101979.59;5048911;28;1803;-75
2022/10/19 06:44:54;;;;;;;;;;;;;;;5.64;79.04;101986.91;5032703;28;2025;-76
2022/10/19 06:47:20;;;;;;;;;;;;;;;5.65;78.97;101985.94;5047308;28;1766;-79
2022/10/19 06:49:47;;;;;;;;;;;;;;;5.66;78.91;101983.09;5046048;28;2098;-76
2022/10/19 06:52:13;;;;;;;;;;;;;;;5.63;78.79;101979.91;5045227;28;1724;-76
2022/10/19 06:54:39;;;;;;;;;;;;;;;5.60;78.96;101982.88;5052516;28;1678;-78
2022/10/19 06:57:06;;;;;;;;;;;;;;;5.59;78.72;101986.53;5073754;28;1649;-78
2022/10/19 06:59:33;;;;;;;;;;;;;;;5.59;78.95;101982.03;5052760;28;1793;-77
2022/10/19 07:01:59;;;;;;;;;;;;;;;5.57;78.98;101993.88;5036035;28;1856;-78
2022/10/19 07:04:25;;;;;;;;;;;;;;;5.57;79.04;101989.34;5047046;28;2056;-77
2022/10/19 07:06:51;;;;;;;;;;;;;;;5.59;78.64;101994.53;5040262;28;1723;-77
2022/10/19 07:09:18;;;;;;;;;;;;;;;5.56;78.77;101998.38;5053349;28;1827;-78
2022/10/19 07:11:44;;;;;;;;;;;;;;;5.55;78.75;101995.84;5057020;28;1828;-78
2022/10/19 07:14:11;;;;;;;;;;;;;;;5.55;78.84;101998.50;5070002;28;1665;-78
2022/10/19 07:16:37;;;;;;;;;;;;;;;5.53;78.72;101998.69;5070974;28;1720;-78
2022/10/19 07:19:03;;;;;;;;;;;;;;;5.52;78.95;101999.66;5064340;28;1765;-78
2022/10/19 07:21:29;;;;;;;;;;;;;;;5.50;78.91;101995.44;5056115;28;1732;-78
2022/10/19 07:23:56;;;;;;;;;;;;;;;5.51;78.86;102000.66;5064931;28;1910;-78
2022/10/19 07:26:23;;;;;;;;;;;;;;;5.51;78.85;102011.34;5063526;28;1830;-78
2022/10/19 07:28:49;;;;;;;;;;;;;;;5.46;78.91;102000.25;5056845;28;1843;-78
2022/10/19 07:31:16;;;;;;;;;;;;;;;5.50;78.96;102006.13;5028833;28;1716;-78
2022/10/19 07:33:42;;;;;;;;;;;;;;;5.46;78.92;102009.13;5049367;28;1728;-78
2022/10/19 07:36:09;;;;;;;;;;;;;;;5.46;78.92;102003.78;5068982;28;1860;-78
2022/10/19 07:38:35;;;;;;;;;;;;;;;5.44;78.85;102005.78;5063335;28;1873;-76
2022/10/19 07:41:01;;;;;;;;;;;;;;;5.45;78.82;102004.78;5050248;28;2007;-77
2022/10/19 07:43:28;;;;;;;;;;;;;;;5.46;78.69;102006.44;5069173;28;1902;-77
2022/10/19 07:45:54;;;;;;;;;;;;;;;5.44;78.77;102008.44;5049694;28;1816;-79
2022/10/19 07:48:20;;;;;;;;;;;;;;;5.43;78.73;102006.75;5052629;28;1695;-78
2022/10/19 07:50:46;;;;;;;;;;;;;;;5.41;78.62;102011.41;5073922;28;1676;-78
2022/10/19 07:53:13;;;;;;;;;;;;;;;5.41;78.76;102014.09;5051882;28;1720;-75
2022/10/19 07:55:39;;;;;;;;;;;;;;;5.42;78.75;102015.75;5052588;28;1704;-76
2022/10/19 07:58:05;;;;;;;;;;;;;;;4.94;78.63;101936.75;5066395;28;1744;-75
2022/10/19 08:00:31;;;;;;;;;;;;;;;5.38;78.85;102022.41;5051378;28;1751;-75
2022/10/19 08:02:58;;;;;;;;;;;;;;;5.40;78.54;102019.56;5058324;28;1720;-75
2022/10/19 08:05:24;;;;;;;;;;;;;;;5.41;78.57;102027.44;5057998;28;1906;-76
2022/10/19 08:07:50;;;;;;;;;;;;;;;5.36;78.69;102024.38;5060370;28;1899;-76
2022/10/19 08:10:17;;;;;;;;;;;;;;;5.36;78.69;102027.06;5063000;28;1673;-76
2022/10/19 08:12:43;;;;;;;;;;;;;;;5.38;78.74;102025.09;5072015;28;1519;-76
2022/10/19 08:15:09;;;;;;;;;;;;;;;5.37;78.69;102023.38;5067497;28;1705;-77
2022/10/19 08:17:36;;;;;;;;;;;;;;;5.37;78.49;102026.06;5070802;28;1586;-76
2022/10/19 08:20:02;;;;;;;;;;;;;;;5.37;78.62;102028.72;5050401;28;1712;-76
2022/10/19 08:22:28;;;;;;;;;;;;;;;5.37;78.48;102028.72;5070941;28;1698;-77
2022/10/19 08:24:55;;;;;;;;;;;;;;;5.36;78.58;102026.22;5045879;28;1969;-77
2022/10/19 08:27:21;;;;;;;;;;;;;;;5.36;78.49;102031.56;5068399;28;1680;-76
2022/10/19 08:29:47;;;;;;;;;;;;;;;5.35;78.52;102020.00;5067934;28;1707;-76
2022/10/19 08:32:14;;;;;;;;;;;;;;;5.35;78.66;102025.34;5049097;28;1677;-76
2022/10/19 08:34:40;;;;;;;;;;;;;;;5.35;78.46;102014.66;5064532;28;1642;-76
2022/10/19 08:37:06;;;;;;;;;;;;;;;5.37;78.57;102018.03;5069861;28;1645;-76
2022/10/19 08:39:32;;;;;;;;;;;;;;;5.36;78.45;102031.56;5076146;28;1816;-79
2022/10/19 08:41:59;;;;;;;;;;;;;;;5.36;78.49;102029.72;5073918;28;1854;-78
2022/10/19 08:44:25;;;;;;;;;;;;;;;5.34;78.50;102022.84;5067233;28;1910;-76
2022/10/19 08:46:51;;;;;;;;;;;;;;;5.35;78.61;102027.19;5051768;28;1693;-76
2022/10/19 08:49:17;;;;;;;;;;;;;;;5.33;78.55;102029.19;5053856;28;1684;-77
2022/10/19 08:51:44;;;;;;;;;;;;;;;5.33;78.78;102023.84;5069363;28;1714;-76
2022/10/19 08:54:11;;;;;;;;;;;;;;;5.33;78.50;102023.84;5070365;28;1498;-77
2022/10/19 08:56:37;;;;;;;;;;;;;;;5.36;78.50;102044.91;5059996;28;1766;-76
2022/10/19 08:59:03;;;;;;;;;;;;;;;5.33;78.37;102032.69;5056738;28;1657;-76
2022/10/19 09:01:29;;;;;;;;;;;;;;;5.34;78.67;102030.84;5064976;28;1938;-77
2022/10/19 09:03:56;;;;;;;;;;;;;;;5.32;78.78;102030.16;5064745;28;2016;-75
2022/10/19 09:06:22;;;;;;;;;;;;;;;5.32;78.54;102022.97;5063635;28;1947;-77
2022/10/19 09:08:48;;;;;;;;;;;;;;;5.32;78.58;102028.31;5070705;28;1708;-76
2022/10/19 09:11:14;;;;;;;;;;;;;;;5.33;78.52;102015.84;5059892;28;1726;-77
2022/10/19 09:13:41;;;;;;;;;;;;;;;5.33;78.53;102019.34;5062633;28;1858;-77
2022/10/19 09:16:07;;;;;;;;;;;;;;;5.34;78.59;102018.34;5061449;28;1779;-77
2022/10/19 09:18:33;;;;;;;;;;;;;;;5.35;78.46;102019.16;5041832;28;1878;-77
2022/10/19 09:20:59;;;;;;;;;;;;;;;5.38;78.44;102017.06;5067201;28;1735;-77
2022/10/19 09:23:26;;;;;;;;;;;;;;;5.41;78.27;102021.25;5064280;28;1909;-77
2022/10/19 09:25:52;;;;;;;;;;;;;;;5.40;78.25;102023.06;5061248;28;1764;-76
2022/10/19 09:28:18;;;;;;;;;;;;;;;5.36;78.44;102021.72;5048842;28;1701;-77
2022/10/19 09:30:45;;;;;;;;;;;;;;;5.44;78.29;102020.94;5064596;28;1754;-77
2022/10/19 09:33:11;;;;;;;;;;;;;;;5.38;78.37;102019.75;5058137;28;1829;-77
2022/10/19 09:35:37;;;;;;;;;;;;;;;5.41;78.31;102018.56;5061329;28;1879;-77
2022/10/19 09:38:03;;;;;;;;;;;;;;;5.44;78.15;102020.94;5073341;28;1680;-78
2022/10/19 09:40:30;;;;;;;;;;;;;;;5.42;78.39;102018.44;5064862;28;1700;-78
2022/10/19 09:43:07;;;;;;;;;;;;;;;5.41;78.37;102027.44;5053514;28;1701;-79
2022/10/19 09:45:33;;;;;;;;;;;;;;;5.41;78.39;102023.91;5038121;28;2146;-79
2022/10/19 09:48:00;;;;;;;;;;;;;;;5.38;78.47;102019.75;5075199;28;1677;-78
2022/10/19 09:50:26;;;;;;;;;;;;;;;5.39;78.50;102021.41;5060880;28;1745;-77
2022/10/19 09:52:52;;;;;;;;;;;;;;;5.38;78.49;102014.41;5064992;28;1818;-78
2022/10/19 09:55:18;;;;;;;;;;;;;;;5.39;78.46;102020.56;5041082;28;1800;-78
2022/10/19 09:57:45;;;;;;;;;;;;;;;5.43;78.46;102019.28;5055422;28;1782;-78
2022/10/19 10:00:11;;;;;;;;;;;;;;;5.43;78.32;102019.28;5048171;28;1700;-79
2022/10/19 10:02:37;;;;;;;;;;;;;;;5.44;78.71;102023.63;5052363;28;1717;-76
2022/10/19 10:05:04;;;;;;;;;;;;;;;5.45;78.31;102018.13;5061743;28;1914;-77
2022/10/19 10:07:30;;;;;;;;;;;;;;;5.46;78.46;102016.28;5062789;28;1827;-77
2022/10/19 10:09:56;;;;;;;;;;;;;;;5.47;78.43;102013.50;5071044;28;1830;-77
2022/10/19 10:12:23;;;;;;;;;;;;;;;5.46;78.32;102017.13;5070126;28;2071;-77
2022/10/19 10:14:49;;;;;;;;;;;;;;;5.46;78.24;102021.63;5066661;28;2596;-78
2022/10/19 10:17:16;;;;;;;;;;;;;;;5.47;78.25;102026.84;5068849;28;1884;-79
2022/10/19 10:19:42;;;;;;;;;;;;;;;5.52;78.43;102029.06;5059762;28;1920;-78
2022/10/19 10:22:08;;;;;;;;;;;;;;;5.51;78.33;102024.72;5072314;28;1645;-76
2022/10/19 10:24:34;;;;;;;;;;;;;;;5.50;78.40;102016.81;5073729;28;1969;-78
2022/10/19 10:27:01;;;;;;;;;;;;;;;5.52;78.58;102014.84;5075864;28;1158;-79
2022/10/19 10:29:27;;;;;;;;;;;;;;;5.49;78.60;102012.50;5074949;28;1313;-78
2022/10/19 10:31:53;;;;;;;;;;;;;;;5.53;78.43;102011.19;5059383;28;1830;-78
2022/10/19 10:34:19;;;;;;;;;;;;;;;5.53;78.62;102014.72;5070690;28;1397;-78
2022/10/19 10:36:46;;;;;;;;;;;;;;;5.53;78.45;102003.16;5074599;28;1624;-78
2022/10/19 10:39:12;;;;;;;;;;;;;;;5.53;78.59;102005.84;5075442;28;1109;-78
2022/10/19 10:41:38;;;;;;;;;;;;;;;5.55;78.58;102006.53;5075456;28;1159;-77
2022/10/19 10:44:05;;;;;;;;;;;;;;;5.60;78.41;102012.28;5056248;28;2008;-78
2022/10/19 10:46:31;;;;;;;;;;;;;;;5.59;78.58;102007.91;5054069;28;1590;-78
2022/10/19 10:48:58;;;;;;;;;;;;;;;5.72;78.58;102007.53;5072650;28;1116;-78
2022/10/19 10:51:24;;;;;;;;;;;;;;;5.71;78.48;102006.72;5060225;28;1229;-78
2022/10/19 10:53:50;;;;;;;;;;;;;;;5.67;78.39;102000.81;5070530;28;1190;-77
2022/10/19 10:56:16;;;;;;;;;;;;;;;5.66;78.54;101998.31;5073839;28;1551;-78
2022/10/19 10:58:43;;;;;;;;;;;;;;;5.63;78.73;101995.94;5075208;28;1194;-77
2022/10/19 11:01:09;;;;;;;;;;;;;;;5.64;78.47;101994.94;5065007;28;1683;-76
2022/10/19 11:03:35;;;;;;;;;;;;;;;5.64;78.71;101998.44;5070558;28;2890;-76
2022/10/19 11:06:02;;;;;;;;;;;;;;;5.68;78.59;101988.31;5049994;28;1939;-76
2022/10/19 11:08:28;;;;;;;;;;;;;;;5.69;78.34;101982.78;5068492;28;2873;-76
2022/10/19 11:10:55;;;;;;;;;;;;;;;5.65;78.78;101981.44;5061404;28;1763;-75
2022/10/19 11:13:21;;;;;;;;;;;;;;;5.70;78.85;101975.59;5070390;28;1650;-77
2022/10/19 11:15:47;;;;;;;;;;;;;;;5.76;78.41;101987.53;5071858;28;2349;-78
2022/10/19 11:18:13;;;;;;;;;;;;;;;5.70;78.87;101976.44;5045841;28;2322;-77
2022/10/19 11:20:40;;;;;;;;;;;;;;;5.68;79.02;101969.59;5046296;28;1624;-77
2022/10/19 11:23:06;;;;;;;;;;;;;;;5.72;78.97;101973.63;5052345;28;3377;-78
2022/10/19 11:25:32;;;;;;;;;;;;;;;5.73;78.80;101964.59;5037191;28;1910;-77
2022/10/19 11:27:58;;;;;;;;;;;;;;;5.78;78.80;101967.66;5053847;28;1654;-78
2022/10/19 11:30:25;;;;;;;;;;;;;;;5.75;79.04;101970.66;5046136;28;1669;-77
2022/10/19 11:32:51;;;;;;;;;;;;;;;5.73;79.02;101967.28;5049308;28;1528;-77
2022/10/19 11:35:17;;;;;;;;;;;;;;;5.73;78.98;101959.25;5049601;28;3244;-76
2022/10/19 11:37:43;;;;;;;;;;;;;;;5.74;79.10;101962.78;5047294;28;1612;-77
2022/10/19 11:40:10;;;;;;;;;;;;;;;5.77;78.95;101955.31;5052800;28;1477;-77
2022/10/19 11:42:36;;;;;;;;;;;;;;;5.77;78.94;101954.47;5049599;28;1536;-77
2022/10/19 11:45:02;;;;;;;;;;;;;;;5.76;79.11;101950.09;5047920;28;1971;-77
2022/10/19 11:47:29;;;;;;;;;;;;;;;5.81;79.23;101947.81;5062070;28;1501;-76
2022/10/19 11:49:55;;;;;;;;;;;;;;;5.82;79.17;101950.31;5062417;28;1546;-77
2022/10/19 11:52:22;;;;;;;;;;;;;;;5.83;79.24;101948.50;5056848;28;1487;-78
2022/10/19 11:54:48;;;;;;;;;;;;;;;5.83;79.23;101946.66;5060592;28;1487;-78
2022/10/19 11:57:14;;;;;;;;;;;;;;;5.88;79.09;101946.19;5074383;28;1194;-77
2022/10/19 11:59:40;;;;;;;;;;;;;;;5.90;79.11;101941.53;5057321;28;1588;-76
2022/10/19 12:02:07;;;;;;;;;;;;;;;5.92;78.98;101937.72;5059386;28;1869;-77
2022/10/19 12:04:33;;;;;;;;;;;;;;;5.91;79.09;101932.50;5052391;28;1913;-76
2022/10/19 12:06:59;;;;;;;;;;;;;;;5.95;79.09;101933.09;5038237;28;1608;-77
2022/10/19 12:09:27;;;;;;;;;;;;;;;5.99;79.00;101937.94;5056128;28;1944;-77
2022/10/19 12:11:53;;;;;;;;;;;;;;;5.94;79.15;101928.72;5058724;28;3609;-76
2022/10/19 12:14:19;;;;;;;;;;;;;;;6.01;79.11;101922.59;5047403;28;3633;-76
2022/10/19 12:16:45;;;;;;;;;;;;;;;5.99;78.99;101929.09;5063563;28;1901;-76
2022/10/19 12:19:12;;;;;;;;;;;;;;;5.98;79.02;101920.22;5036056;28;3510;-76
2022/10/19 12:21:39;;;;;;;;;;;;;;;6.12;78.94;101916.16;5037646;28;1546;-77
2022/10/19 12:24:05;;;;;;;;;;;;;;;6.11;79.08;101923.31;5035299;28;2036;-77
2022/10/19 12:26:31;;;;;;;;;;;;;;;6.09;78.96;101909.28;5061854;28;1949;-77
2022/10/19 12:28:57;;;;;;;;;;;;;;;6.12;79.01;101911.66;5041664;28;1598;-76
2022/10/19 12:31:24;;;;;;;;;;;;;;;6.07;79.49;101903.25;5072195;28;3583;-75
2022/10/19 12:33:50;;;;;;;;;;;;;;;6.09;79.46;101897.75;5056056;28;1658;-77
2022/10/19 12:36:16;;;;;;;;;;;;;;;6.17;79.23;101897.78;5066158;28;1855;-76
2022/10/19 12:38:43;;;;;;;;;;;;;;;6.13;79.12;101891.06;5073780;28;1870;-76
2022/10/19 12:41:09;;;;;;;;;;;;;;;6.16;79.22;101898.78;5073143;28;1626;-76
2022/10/19 12:43:35;;;;;;;;;;;;;;;6.22;79.15;101890.13;5066059;28;1750;-79
2022/10/19 12:46:02;;;;;;;;;;;;;;;6.18;79.36;101887.91;5068951;28;2456;-77
2022/10/19 12:48:28;;;;;;;;;;;;;;;6.22;79.59;101894.63;5071162;28;1634;-76
2022/10/19 12:50:56;;;;;;;;;;;;;;;6.35;79.06;101890.53;5073138;28;1882;-76
2022/10/19 12:53:22;;;;;;;;;;;;;;;6.22;79.48;101891.97;5061695;28;1594;-78
2022/10/19 12:55:48;;;;;;;;;;;;;;;6.25;79.29;101895.16;5072205;28;1867;-79
2022/10/19 12:58:14;;;;;;;;;;;;;;;6.23;79.69;101889.13;5075293;28;1702;-77
2022/10/19 13:00:41;;;;;;;;;;;;;;;6.20;79.57;101888.59;5056967;28;1580;-77
2022/10/19 13:03:07;;;;;;;;;;;;;;;6.39;78.98;101882.19;5074564;28;1828;-76
2022/10/19 13:05:33;;;;;;;;;;;;;;;6.58;78.03;101885.44;5067869;28;1898;-76
2022/10/19 13:07:59;;;;;;;;;;;;;;;6.65;77.91;101885.66;5076462;28;1550;-75
2022/10/19 13:10:26;;;;;;;;;;;;;;;6.65;77.78;101880.31;5058688;28;1886;-76
2022/10/19 13:12:52;;;;;;;;;;;;;;;6.82;76.93;101874.00;5076374;28;1583;-76
2022/10/19 13:15:18;;;;;;;;;;;;;;;6.91;76.50;101874.88;5059964;28;1594;-77
2022/10/19 13:17:45;;;;;;;;;;;;;;;6.94;76.81;101863.81;5069171;28;1547;-76
2022/10/19 13:20:11;;;;;;;;;;;;;;;6.98;76.81;101862.47;5062302;28;1872;-76
2022/10/19 13:22:37;;;;;;;;;;;;;;;7.11;76.10;101864.69;5076512;28;1547;-77
2022/10/19 13:25:04;;;;;;;;;;;;;;;7.04;76.36;101866.34;5066251;28;1975;-77
2022/10/19 13:27:30;;;;;;;;;;;;;;;7.16;76.56;101858.84;5075603;28;1555;-77
2022/10/19 13:29:57;;;;;;;;;;;;;;;7.06;76.61;101867.03;5069557;28;1804;-78
2022/10/19 13:32:23;;;;;;;;;;;;;;;7.11;76.63;101864.69;5075746;28;1535;-78
2022/10/19 13:34:49;;;;;;;;;;;;;;;7.48;75.14;101855.34;5073425;28;1515;-76
2022/10/19 13:37:15;;;;;;;;;;;;;;;7.31;75.64;101856.34;5074596;28;1504;-78
2022/10/19 13:39:42;;;;;;;;;;;;;;;6.97;77.08;101850.09;5073326;28;1844;-77
2022/10/19 13:42:08;;;;;;;;;;;;;;;7.14;76.45;101850.94;5069096;28;1653;-77
2022/10/19 13:44:35;;;;;;;;;;;;;;;7.30;76.30;101852.00;5075281;28;1482;-78
2022/10/19 13:47:01;;;;;;;;;;;;;;;7.18;76.87;101844.28;5055824;28;2074;-78
2022/10/19 13:49:28;;;;;;;;;;;;;;;7.11;76.95;101845.09;5074682;28;1905;-78
2022/10/19 13:51:54;;;;;;;;;;;;;;;7.09;77.18;101841.72;5054669;28;1574;-77
2022/10/19 13:54:20;;;;;;;;;;;;;;;7.07;76.97;101841.91;5070455;28;1721;-79
2022/10/19 13:56:47;;;;;;;;;;;;;;;7.22;76.80;101842.09;5073521;28;1494;-77
2022/10/19 13:59:13;;;;;;;;;;;;;;;7.22;76.78;101847.44;5071319;28;1967;-80
2022/10/19 14:01:39;;;;;;;;;;;;;;;7.39;76.32;101846.47;5054972;28;1786;-77
2022/10/19 14:04:05;;;;;;;;;;;;;;;6.99;77.63;101841.88;5070525;28;1678;-77
2022/10/19 14:06:32;;;;;;;;;;;;;;;7.14;77.20;101842.91;5055476;28;1977;-78
2022/10/19 14:08:58;;;;;;;;;;;;;;;7.20;77.30;101834.19;5053414;28;1772;-78
2022/10/19 14:11:24;;;;;;;;;;;;;;;7.13;77.58;101827.84;5055866;28;1885;-78
2022/10/19 14:13:50;;;;;;;;;;;;;;;7.03;77.98;101832.53;5072034;28;1583;-77
2022/10/19 14:16:17;;;;;;;;;;;;;;;7.18;77.54;101820.16;5073205;28;1599;-77
2022/10/19 14:18:43;;;;;;;;;;;;;;;7.10;77.94;101825.50;5066276;28;1921;-77
2022/10/19 14:21:09;;;;;;;;;;;;;;;6.92;78.79;101812.25;5066225;28;1600;-76
2022/10/19 14:23:35;;;;;;;;;;;;;;;7.07;78.40;101809.75;5070080;28;1864;-76
2022/10/19 14:26:02;;;;;;;;;;;;;;;7.00;78.34;101817.63;5067529;28;1918;-78
2022/10/19 14:28:28;;;;;;;;;;;;;;;6.83;79.29;101814.06;5051244;28;1919;-78
2022/10/19 14:30:54;;;;;;;;;;;;;;;6.89;79.06;101811.75;5054731;28;1520;-76
2022/10/19 14:33:21;;;;;;;;;;;;;;;6.83;79.51;101807.88;5034617;28;1540;-77
2022/10/19 14:35:47;;;;;;;;;;;;;;;6.85;79.60;101807.72;5067225;28;1531;-77
2022/10/19 14:38:13;;;;;;;;;;;;;;;6.86;79.40;101804.03;5065745;28;1816;-80
2022/10/19 14:40:39;;;;;;;;;;;;;;;6.80;79.81;101806.38;5069112;28;1912;-77
2022/10/19 14:43:06;;;;;;;;;;;;;;;6.73;79.91;101802.66;5070253;28;1654;-77
2022/10/19 14:45:32;;;;;;;;;;;;;;;6.80;79.94;101801.03;5071525;28;1902;-77
2022/10/19 14:47:58;;;;;;;;;;;;;;;6.74;80.40;101792.81;5070588;28;1503;-77
2022/10/19 14:50:24;;;;;;;;;;;;;;;6.72;80.33;101794.81;5068508;28;1804;-78
2022/10/19 14:52:51;;;;;;;;;;;;;;;6.72;80.29;101795.63;5072161;28;1712;-78
2022/10/19 14:55:17;;;;;;;;;;;;;;;6.73;80.16;101797.31;5074198;28;1543;-76
2022/10/19 14:57:44;;;;;;;;;;;;;;;6.74;80.66;101801.69;5067253;28;1508;-77
2022/10/19 15:00:10;;;;;;;;;;;;;;;6.76;80.63;101793.47;5048608;28;1859;-77
2022/10/19 15:02:37;;;;;;;;;;;;;;;6.75;80.82;101787.28;5068829;28;1551;-78
2022/10/19 15:05:03;;;;;;;;;;;;;;;6.76;80.82;101788.94;5055241;28;1993;-76
2022/10/19 15:07:29;;;;;;;;;;;;;;;6.75;81.00;101786.44;5047429;28;1875;-78
2022/10/19 15:09:56;;;;;;;;;;;;;;;6.76;81.02;101790.78;5040696;28;1755;-77
2022/10/19 15:12:22;;;;;;;;;;;;;;;6.77;81.08;101795.16;5051871;28;2085;-79
2022/10/19 15:14:48;;;;;;;;;;;;;;;6.82;80.82;101798.16;5058121;28;1853;-78
2022/10/19 15:17:15;;;;;;;;;;;;;;;6.80;80.96;101795.66;5065591;28;1635;-77
2022/10/19 15:19:41;;;;;;;;;;;;;;;6.81;80.84;101794.66;5044796;28;1630;-77
2022/10/19 15:22:07;;;;;;;;;;;;;;;6.80;81.13;101784.94;5067991;28;1929;-76
2022/10/19 15:24:33;;;;;;;;;;;;;;;6.82;81.09;101782.94;5063287;28;1459;-78
2022/10/19 15:27:00;;;;;;;;;;;;;;;6.82;80.92;101788.31;5065988;28;1989;-77
2022/10/19 15:29:26;;;;;;;;;;;;;;;6.83;81.16;101784.63;5061069;28;1555;-77
2022/10/19 15:31:55;;;;;;;;;;;;;;;6.84;81.35;101785.44;5062238;28;1490;-78
2022/10/19 15:34:21;;;;;;;;;;;;;;;6.85;81.32;101792.47;5053152;28;1907;-79
2022/10/19 15:36:47;;;;;;;;;;;;;;;6.86;81.01;101782.63;5049683;28;1751;-78
2022/10/19 15:39:14;;;;;;;;;;;;;;;6.86;81.27;101786.13;5063285;28;1768;-78
2022/10/19 15:41:40;;;;;;;;;;;;;;;6.87;81.27;101784.28;5052523;28;1591;-78
2022/10/19 15:44:07;;;;;;;;;;;;;;;6.88;81.03;101789.47;5044913;28;1661;-78
2022/10/19 15:46:33;;;;;;;;;;;;;;;6.89;81.24;101793.00;5042019;28;2724;-78
2022/10/19 15:48:59;;;;;;;;;;;;;;;6.89;80.87;101787.66;5057609;28;1792;-78
2022/10/19 15:51:26;;;;;;;;;;;;;;;6.90;81.35;101775.91;5058837;28;1537;-78
2022/10/19 15:53:52;;;;;;;;;;;;;;;6.89;81.08;101769.72;5071104;28;1710;-78
2022/10/19 15:56:18;;;;;;;;;;;;;;;6.89;81.18;101769.72;5047004;28;1713;-78
2022/10/19 15:58:44;;;;;;;;;;;;;;;6.91;81.05;101774.91;5053854;28;1594;-78
2022/10/19 16:01:11;;;;;;;;;;;;;;;6.91;81.15;101764.19;5035079;28;1607;-78
2022/10/19 16:03:37;;;;;;;;;;;;;;;6.91;81.08;101759.69;5046169;28;1661;-77
2022/10/19 16:06:03;;;;;;;;;;;;;;;6.91;81.12;101761.50;5044061;28;1942;-76
2022/10/19 16:08:30;;;;;;;;;;;;;;;6.92;81.27;101758.69;5037939;28;1448;-76
2022/10/19 16:10:56;;;;;;;;;;;;;;;6.92;81.27;101765.88;5045600;28;1930;-77
2022/10/19 16:13:22;;;;;;;;;;;;;;;6.93;81.41;101764.88;5035794;28;2210;-75
2022/10/19 16:15:50;;;;;;;;;;;;;;;6.92;81.00;101755.19;5041940;28;1625;-76
2022/10/19 16:18:16;;;;;;;;;;;;;;;6.94;81.07;101762.03;5034313;28;1442;-76
2022/10/19 16:20:42;;;;;;;;;;;;;;;6.95;81.08;101752.16;5030516;28;1828;-77
2022/10/19 16:23:11;;;;;;;;;;;;;;;6.94;81.42;101753.16;5038803;28;1860;-76
2022/10/19 16:25:37;;;;;;;;;;;;;;;6.94;81.15;101750.47;5040039;28;1910;-77
2022/10/19 16:28:04;;;;;;;;;;;;;;;6.94;81.39;101745.09;5037718;28;1773;-78
2022/10/19 16:30:30;;;;;;;;;;;;;;;6.95;81.07;101744.13;5031693;28;1631;-77
2022/10/19 16:32:56;;;;;;;;;;;;;;;6.95;81.11;101752.16;5034325;28;1796;-77
2022/10/19 16:35:23;;;;;;;;;;;;;;;6.95;81.38;101749.47;5033686;28;1883;-77
2022/10/19 16:37:49;;;;;;;;;;;;;;;6.96;81.25;101740.44;5039809;28;1945;-77
2022/10/19 16:40:16;;;;;;;;;;;;;;;6.94;81.40;101745.97;5035511;28;2063;-75
2022/10/19 16:42:42;;;;;;;;;;;;;;;6.95;81.33;101738.78;5037306;28;1875;-76
2022/10/19 16:45:08;;;;;;;;;;;;;;;6.95;81.02;101742.28;5028869;28;1902;-77
2022/10/19 16:47:34;;;;;;;;;;;;;;;6.95;81.26;101742.28;5029425;28;1895;-76
2022/10/19 16:50:01;;;;;;;;;;;;;;;6.95;81.20;101744.97;5049465;28;1545;-77
2022/10/19 16:52:27;;;;;;;;;;;;;;;6.96;81.18;101743.13;5034546;28;1850;-75
2022/10/19 16:54:53;;;;;;;;;;;;;;;6.96;81.29;101743.94;5034632;28;1606;-77
2022/10/19 16:57:20;;;;;;;;;;;;;;;6.96;80.93;101738.59;5037911;28;2261;-77
2022/10/19 16:59:46;;;;;;;;;;;;;;;6.96;81.07;101743.94;5034707;28;1879;-75
2022/10/19 17:02:13;;;;;;;;;;;;;;;6.96;81.03;101732.41;5046148;28;1760;-75
2022/10/19 17:04:39;;;;;;;;;;;;;;;6.97;81.30;101734.06;5051981;28;1928;-75
2022/10/19 17:07:05;;;;;;;;;;;;;;;6.97;81.01;101734.06;5053457;28;1977;-78
2022/10/19 17:09:31;;;;;;;;;;;;;;;6.96;81.30;101735.06;5050705;28;1887;-77
2022/10/19 17:11:58;;;;;;;;;;;;;;;6.96;81.42;101738.59;5053639;28;1599;-77
2022/10/19 17:14:24;;;;;;;;;;;;;;;6.95;81.49;101731.56;5053155;28;1877;-75
2022/10/19 17:16:50;;;;;;;;;;;;;;;6.96;81.22;101737.75;5053897;28;1382;-75
2022/10/19 17:19:16;;;;;;;;;;;;;;;6.96;81.10;101735.91;5053741;28;1697;-76
2022/10/19 17:21:43;;;;;;;;;;;;;;;6.96;81.32;101740.44;5053217;28;1467;-76
2022/10/19 17:24:09;;;;;;;;;;;;;;;6.96;81.10;101738.59;5051916;28;1910;-75
2022/10/19 17:26:36;;;;;;;;;;;;;;;6.97;81.09;101740.28;5052361;28;1911;-77
2022/10/19 17:29:02;;;;;;;;;;;;;;;6.95;81.18;101742.28;5051202;28;1701;-77
2022/10/19 17:31:28;;;;;;;;;;;;;;;6.99;81.37;101740.09;5046908;28;1899;-77
2022/10/19 17:33:54;;;;;;;;;;;;;;;6.98;81.06;101738.44;5049043;28;1952;-77
2022/10/19 17:36:21;;;;;;;;;;;;;;;6.99;81.03;101734.75;5053362;28;1685;-75
2022/10/19 17:38:47;;;;;;;;;;;;;;;7.00;80.87;101721.19;5053016;28;1387;-78
2022/10/19 17:41:13;;;;;;;;;;;;;;;7.13;80.53;101726.03;5053046;28;1584;-77
2022/10/19 17:43:40;;;;;;;;;;;;;;;7.15;80.25;101725.88;5047826;28;1543;-77
2022/10/19 17:46:06;;;;;;;;;;;;;;;7.19;79.68;101725.34;5051949;28;1973;-77
2022/10/19 17:48:32;;;;;;;;;;;;;;;7.17;80.19;101723.84;5051872;28;1869;-77
2022/10/19 17:50:58;;;;;;;;;;;;;;;7.02;80.44;101727.19;5055555;28;1543;-77
2022/10/19 17:53:25;;;;;;;;;;;;;;;7.00;80.75;101723.88;5052752;28;1836;-76
2022/10/19 17:55:51;;;;;;;;;;;;;;;7.33;79.55;101721.16;5054597;28;1521;-77
2022/10/19 17:58:18;;;;;;;;;;;;;;;7.31;79.27;101725.00;5053935;28;1611;-76
2022/10/19 18:00:44;;;;;;;;;;;;;;;7.15;79.96;101728.56;5053852;28;1434;-76
2022/10/19 18:03:10;;;;;;;;;;;;;;;7.30;79.50;101718.00;5073904;28;1678;-76
2022/10/19 18:05:37;;;;;;;;;;;;;;;7.13;80.32;101722.53;5071154;28;1769;-77
2022/10/19 18:08:03;;;;;;;;;;;;;;;7.24;79.54;101724.88;5065250;28;1906;-78
2022/10/19 18:10:29;;;;;;;;;;;;;;;7.19;79.90;101720.00;5058954;28;2012;-78
2022/10/19 18:12:56;;;;;;;;;;;;;;;7.41;79.05;101721.16;5047863;28;1985;-77
2022/10/19 18:15:22;;;;;;;;;;;;;;;7.42;78.68;101722.00;5058870;28;2075;-76
2022/10/19 18:17:48;;;;;;;;;;;;;;;7.39;78.78;101727.69;5047049;28;3564;-76
2022/10/19 18:20:15;;;;;;;;;;;;;;;7.17;79.62;101726.53;5063930;28;2592;-76
2022/10/19 18:22:41;;;;;;;;;;;;;;;7.40;78.73;101727.50;5044840;28;1797;-76
2022/10/19 18:25:07;;;;;;;;;;;;;;;7.33;78.68;101723.84;5063319;28;2165;-78
2022/10/19 18:27:33;;;;;;;;;;;;;;;7.30;79.11;101726.03;5043706;28;2144;-78
2022/10/19 18:30:00;;;;;;;;;;;;;;;7.58;77.99;101719.25;5055558;28;2080;-78
2022/10/19 18:32:26;;;;;;;;;;;;;;;7.54;77.82;101719.78;5069373;28;2206;-77
2022/10/19 18:34:52;;;;;;;;;;;;;;;7.55;77.90;101722.28;5051625;28;1890;-77
2022/10/19 18:37:19;;;;;;;;;;;;;;;7.79;77.37;101717.84;5066237;28;1943;-78
2022/10/19 18:39:45;;;;;;;;;;;;;;;7.95;76.15;101718.63;5066579;28;2002;-78
2022/10/19 18:42:12;;;;;;;;;;;;;;;8.03;76.20;101711.56;5063450;28;1654;-76
2022/10/19 18:44:38;;;;;;;;;;;;;;;7.94;76.52;101716.13;5068012;28;2146;-77
2022/10/19 18:47:04;;;;;;;;;;;;;;;8.00;75.83;101712.75;5061845;28;2027;-76
2022/10/19 18:49:30;;;;;;;;;;;;;;;8.02;75.98;101713.41;5051048;28;2018;-77
2022/10/19 18:51:57;;;;;;;;;;;;;;;7.99;75.74;101710.25;5064342;28;1992;-78